Time;durP1;ratioP1;P1;durP2;ratioP2;P2;SDS_P1;SDS_P2;PMS_P1;PMS_P2;Temp;Humidity;BMP_temperature;BMP_pressure;BME280_temperature;BME280_humidity;BME280_pressure;Samples;Min_cycle;Max_cycle;Signal;HPM_P1;HPM_P2
2021/12/07 00:00:37;;;;;;;37.00;15.90;;;;;;;15.15;89.41;99834.56;5038114;28;20036;-88
2021/12/07 00:03:03;;;;;;;38.85;15.40;;;;;;;15.02;89.09;99804.47;5055630;28;20044;-88
2021/12/07 00:05:28;;;;;;;41.15;16.95;;;;;;;15.11;89.10;99830.50;5038071;28;20118;-89
2021/12/07 00:07:54;;;;;;;41.45;16.83;;;;;;;14.99;88.84;99820.19;5037865;28;20517;-91
2021/12/07 00:10:20;;;;;;;34.95;15.55;;;;;;;15.01;89.05;99818.19;5054252;28;20399;-89
2021/12/07 00:12:46;;;;;;;37.65;17.48;;;;;;;15.08;89.25;99832.69;5035850;28;20052;-90
2021/12/07 00:15:16;;;;;;;37.53;16.98;;;;;;;14.98;89.26;99824.75;5036189;28;20025;-89
2021/12/07 00:17:42;;;;;;;39.85;17.90;;;;;;;14.82;89.22;99789.63;5037202;28;20061;-88
2021/12/07 00:20:12;;;;;;;42.75;18.10;;;;;;;14.93;89.34;99815.47;5056472;28;20021;-90
2021/12/07 00:22:38;;;;;;;32.90;17.30;;;;;;;14.94;89.66;99800.94;5038666;28;20040;-89
2021/12/07 00:25:05;;;;;;;39.08;17.95;;;;;;;14.73;89.27;99787.94;5037816;28;20025;-89
2021/12/07 00:27:31;;;;;;;39.67;17.95;;;;;;;14.74;89.58;99795.03;5057967;28;20032;-90
2021/12/07 00:29:56;;;;;;;33.53;18.52;;;;;;;14.79;89.21;99803.50;5039567;28;20021;-89
2021/12/07 00:37:30;;;;;;;44.25;17.75;;;;;;;14.71;89.03;99784.53;5067893;28;20031;-88
2021/12/07 00:39:57;;;;;;;43.90;19.63;;;;;;;14.78;89.39;99809.91;5041348;28;20017;-90
2021/12/07 00:42:23;;;;;;;31.63;18.17;;;;;;;14.57;89.29;99780.69;5060804;28;20036;-88
2021/12/07 00:44:49;;;;;;;39.63;17.15;;;;;;;14.67;89.72;99792.19;5058007;28;20021;-89
2021/12/07 00:47:16;;;;;;;33.58;18.13;;;;;;;14.54;90.13;99794.56;5035781;28;20059;-89
2021/12/07 00:49:42;;;;;;;34.78;17.80;;;;;;;14.47;90.57;99793.53;5038255;28;20124;-88
2021/12/07 00:52:08;;;;;;;40.10;18.65;;;;;;;14.37;91.85;99819.09;5056813;28;20043;-89
2021/12/07 00:54:34;;;;;;;36.38;17.40;;;;;;;14.39;92.39;99827.88;5038672;28;20070;-89
2021/12/07 00:57:01;;;;;;;32.05;18.15;;;;;;;14.25;92.89;99815.00;5038775;28;20033;-89
2021/12/07 00:59:27;;;;;;;30.67;15.68;;;;;;;14.16;93.82;99796.03;5056935;28;20013;-87
2021/12/07 01:01:53;;;;;;;38.45;18.15;;;;;;;14.19;93.97;99805.69;5040315;28;20032;-87
2021/12/07 01:04:18;;;;;;;45.10;16.83;;;;;;;14.19;94.31;99798.41;5038593;28;20033;-88
2021/12/07 01:06:48;;;;;;;43.75;19.13;;;;;;;14.22;94.57;99782.88;5046201;28;20568;-87
2021/12/07 01:25:33;;;;;;;36.28;18.23;;;;;;;14.74;91.33;99750.91;5056368;28;20032;-86
2021/12/07 01:28:05;;;;;;;35.00;16.23;;;;;;;14.77;91.22;99743.25;5055932;28;20025;-86
2021/12/07 01:30:44;;;;;;;27.70;16.25;;;;;;;14.85;90.41;99727.00;5055376;28;20044;-86
2021/12/07 01:35:54;;;;;;;32.25;16.38;;;;;;;14.88;89.10;99714.97;5055640;28;20506;-87
2021/12/07 01:50:03;;;;;;;35.50;14.93;;;;;;;14.84;88.88;99703.66;4994029;28;20027;-86
2021/12/07 02:00:20;;;;;;;32.22;16.50;;;;;;;14.83;89.49;99680.31;5054258;28;20409;-86
2021/12/07 02:02:46;;;;;;;28.25;13.40;;;;;;;14.85;89.05;99693.69;5055250;28;20375;-86
2021/12/07 02:05:11;;;;;;;29.13;13.25;;;;;;;14.66;88.92;99675.97;5055158;28;20028;-86
2021/12/07 02:07:37;;;;;;;22.92;12.98;;;;;;;14.51;89.23;99696.66;5036670;28;20529;-86
2021/12/07 02:10:10;;;;;;;30.30;12.43;;;;;;;14.47;89.15;99674.50;5055070;28;20399;-85
2021/12/07 02:12:42;;;;;;;21.90;12.57;;;;;;;14.50;89.46;99689.53;5036879;28;20130;-85
2021/12/07 02:15:17;;;;;;;32.35;13.20;;;;;;;14.50;90.20;99705.78;5040524;28;20029;-85
2021/12/07 02:17:44;;;;;;;40.60;13.88;;;;;;;14.38;90.80;99704.44;5036589;28;20040;-84
2021/12/07 02:20:11;;;;;;;37.40;14.25;;;;;;;14.34;91.79;99700.41;5054753;28;20033;-85
2021/12/07 02:22:37;;;;;;;35.55;14.50;;;;;;;14.24;92.26;99688.91;5036502;28;20025;-86
2021/12/07 02:25:04;;;;;;;38.83;15.82;;;;;;;14.32;92.36;99687.00;5054980;28;20090;-85
2021/12/07 02:27:30;;;;;;;36.45;16.02;;;;;;;14.41;91.95;99679.75;5054318;28;20051;-85
2021/12/07 02:29:55;;;;;;;32.47;14.68;;;;;;;14.46;91.63;99677.41;5054705;28;20024;-86
2021/12/07 02:32:21;;;;;;;37.90;14.35;;;;;;;14.47;91.64;99670.94;5036615;28;20032;-85
2021/12/07 02:34:59;;;;;;;29.80;14.93;;;;;;;14.55;91.49;99666.38;5036400;28;20040;-85
2021/12/07 02:37:26;;;;;;;29.65;13.90;;;;;;;14.60;91.11;99673.97;5036217;28;20024;-85
2021/12/07 02:39:52;;;;;;;47.35;15.32;;;;;;;14.63;91.37;99677.19;5053927;28;20025;-85
2021/12/07 02:42:18;;;;;;;38.45;15.20;;;;;;;14.57;91.33;99663.50;5054246;28;20071;-85
2021/12/07 02:44:44;;;;;;;42.08;16.10;;;;;;;14.57;91.39;99661.63;5054654;28;20140;-85
2021/12/07 02:47:09;;;;;;;44.17;16.05;;;;;;;14.56;91.21;99659.09;5036393;28;20025;-86
2021/12/07 02:49:35;;;;;;;38.15;14.23;;;;;;;14.66;90.79;99665.16;5054379;28;20021;-86
2021/12/07 02:52:03;;;;;;;44.38;15.65;;;;;;;14.67;90.96;99665.00;5036175;28;20567;-85
2021/12/07 02:54:30;;;;;;;36.30;15.10;;;;;;;14.56;90.83;99654.53;5036474;28;20108;-86
2021/12/07 02:56:56;;;;;;;36.70;14.05;;;;;;;14.44;90.78;99649.66;5053709;28;20017;-85
2021/12/07 02:59:23;;;;;;;41.92;14.88;;;;;;;14.32;91.62;99637.47;5053996;28;20424;-85
2021/12/07 03:01:58;;;;;;;37.25;16.40;;;;;;;14.30;92.21;99655.75;5053992;28;20052;-85
2021/12/07 03:04:30;;;;;;;37.80;15.57;;;;;;;14.22;92.87;99653.91;5053831;28;20025;-85
2021/12/07 03:25:56;;;;;;;41.28;11.25;;;;;;;13.75;95.22;99640.28;5054037;28;20134;-86
2021/12/07 03:26:06;;;;;;;27.33;10.93;;;;;;;13.79;96.39;99648.88;5054009;28;20107;-85
2021/12/07 03:28:35;;;;;;;41.10;12.00;;;;;;;13.73;96.30;99639.56;5054147;28;20056;-86
2021/12/07 03:31:03;;;;;;;27.90;9.75;;;;;;;13.77;96.22;99646.34;5054095;28;20466;-84
2021/12/07 03:33:29;;;;;;;25.30;11.25;;;;;;;13.68;96.41;99633.84;5054467;28;20513;-84
2021/12/07 03:35:54;;;;;;;33.80;11.55;;;;;;;13.72;96.75;99628.94;5036107;28;20024;-84
2021/12/07 03:38:20;;;;;;;41.45;11.45;;;;;;;13.85;96.81;99646.31;5054069;28;20032;-84
2021/12/07 03:40:46;;;;;;;34.45;10.57;;;;;;;13.84;96.86;99650.06;5053825;28;20096;-85
2021/12/07 03:43:13;;;;;;;41.78;10.60;;;;;;;13.72;97.10;99643.31;5036131;28;20183;-85
2021/12/07 03:45:38;;;;;;;34.03;10.98;;;;;;;13.81;97.24;99647.69;5053765;28;20028;-84
2021/12/07 03:48:08;;;;;;;34.22;10.40;;;;;;;13.83;97.32;99647.50;5053525;28;20029;-86
2021/12/07 03:50:34;;;;;;;33.78;10.48;;;;;;;13.75;97.55;99632.16;5053100;28;20482;-85
2021/12/07 03:53:00;;;;;;;29.63;12.32;;;;;;;13.77;97.62;99631.97;5035465;28;20033;-85
2021/12/07 03:55:26;;;;;;;30.55;11.68;;;;;;;13.84;97.72;99647.38;5035508;28;20098;-85
2021/12/07 03:57:52;;;;;;;40.03;12.45;;;;;;;13.78;97.93;99639.94;5053344;28;20028;-85
2021/12/07 04:00:22;;;;;;;31.92;11.40;;;;;;;13.91;97.93;99656.47;5035623;28;20025;-85
2021/12/07 04:02:50;;;;;;;24.25;10.98;;;;;;;13.90;97.92;99657.50;5054804;28;20166;-85
2021/12/07 04:05:18;;;;;;;43.90;12.77;;;;;;;13.90;97.83;99645.84;5036209;28;20033;-85
2021/12/07 04:07:45;;;;;;;29.08;11.98;;;;;;;13.95;97.96;99644.31;5053247;28;20104;-84
2021/12/07 04:10:13;;;;;;;52.00;13.05;;;;;;;14.01;97.76;99642.78;5053260;28;20088;-86
2021/12/07 04:12:39;;;;;;;32.67;12.00;;;;;;;14.07;97.82;99628.56;5035456;28;20362;-86
2021/12/07 04:15:07;;;;;;;39.13;13.02;;;;;;;14.15;97.75;99639.38;5053429;28;20025;-85
2021/12/07 04:17:33;;;;;;;40.10;12.13;;;;;;;14.13;97.36;99631.44;5016913;28;20069;-84
2021/12/07 04:19:59;;;;;;;40.05;13.73;;;;;;;14.22;97.15;99632.25;5032956;28;20028;-85
2021/12/07 04:22:25;;;;;;;28.48;12.50;;;;;;;14.30;96.66;99644.94;5015073;28;20026;-84
2021/12/07 04:24:51;;;;;;;36.38;14.02;;;;;;;14.34;96.36;99630.09;5036256;28;20099;-84
2021/12/07 04:27:16;;;;;;;45.65;13.30;;;;;;;14.48;95.87;99642.88;5019514;28;20079;-84
2021/12/07 04:29:42;;;;;;;41.22;13.73;;;;;;;14.49;94.93;99631.06;5018953;28;20021;-84
2021/12/07 04:32:07;;;;;;;41.60;13.63;;;;;;;14.58;93.58;99627.31;5035178;28;20029;-84
2021/12/07 04:34:33;;;;;;;31.08;12.23;;;;;;;14.76;93.19;99646.84;5036932;28;20025;-84
2021/12/07 04:36:59;;;;;;;30.80;12.15;;;;;;;14.76;92.74;99649.56;5036900;28;20477;-85
2021/12/07 04:39:24;;;;;;;34.78;12.80;;;;;;;14.75;91.97;99628.06;5036817;28;20075;-85
2021/12/07 04:41:51;;;;;;;32.45;12.85;;;;;;;14.89;91.43;99639.00;5036740;28;20028;-83
2021/12/07 04:44:16;;;;;;;39.40;13.27;;;;;;;14.95;91.04;99643.69;5018287;28;20039;-85
2021/12/07 04:46:55;;;;;;;29.23;13.65;;;;;;;14.88;90.65;99622.94;5036397;28;20462;-88
2021/12/07 04:57:44;;;;;;;31.25;12.07;;;;;;;15.11;89.19;99626.53;5031802;28;20064;-80
2021/12/07 05:00:19;;;;;;;32.67;13.10;;;;;;;15.19;88.64;99626.50;5053199;28;20059;-82
2021/12/07 05:02:51;;;;;;;25.17;11.55;;;;;;;15.19;88.60;99627.34;5056351;28;20029;-87
2021/12/07 05:05:17;;;;;;;35.42;13.63;;;;;;;15.12;87.98;99602.00;5056243;28;20078;-83
2021/12/07 05:07:48;;;;;;;30.10;12.30;;;;;;;15.22;87.98;99620.72;5042022;28;20025;-79
2021/12/07 05:15:24;;;;;;;29.05;13.13;;;;;;;15.29;88.10;99628.97;5035950;28;20037;-84
2021/12/07 05:18:21;;;;;;;37.08;14.30;;;;;;;15.20;87.82;99615.47;5035734;28;20057;-83
2021/12/07 05:34:40;;;;;;;34.70;16.15;;;;;;;15.01;88.73;99637.59;5012026;28;20072;-79
2021/12/07 05:39:51;;;;;;;29.00;16.10;;;;;;;15.12;88.22;99620.94;5015559;28;20041;-85
2021/12/07 05:42:18;;;;;;;24.50;13.50;;;;;;;15.13;87.21;99610.97;5015212;28;20022;-82
2021/12/07 05:44:44;;;;;;;33.10;14.82;;;;;;;15.15;87.30;99626.00;5015651;28;20022;-78
2021/12/07 05:47:09;;;;;;;40.60;16.17;;;;;;;15.14;87.32;99624.31;5015253;28;20498;-79
2021/12/07 05:49:35;;;;;;;33.35;12.43;;;;;;;15.17;87.05;99618.53;5015912;28;20030;-77
2021/12/07 05:52:02;;;;;;;32.92;13.52;;;;;;;15.20;86.52;99623.59;5018157;28;20541;-82
2021/12/07 05:54:28;;;;;;;26.38;9.30;;;;;;;15.20;86.38;99637.13;5000068;28;20407;-78
2021/12/07 05:56:53;;;;;;;22.52;8.52;;;;;;;15.05;85.96;99628.09;5017810;28;20034;-79
2021/12/07 05:59:19;;;;;;;16.98;7.78;;;;;;;14.99;85.24;99615.25;5015451;28;20028;-79
2021/12/07 06:01:44;;;;;;;16.63;7.85;;;;;;;15.01;84.86;99626.78;5016129;28;20061;-83
2021/12/07 06:04:10;;;;;;;16.30;4.70;;;;;;;14.78;84.00;99625.00;5015048;28;20112;-80
2021/12/07 06:06:36;;;;;;;15.88;6.50;;;;;;;14.79;84.04;99630.25;5015105;28;20026;-80
2021/12/07 06:09:02;;;;;;;17.48;7.60;;;;;;;14.68;84.67;99628.78;5015609;28;20570;-82
2021/12/07 06:11:28;;;;;;;13.80;6.43;;;;;;;14.71;85.11;99619.44;5015139;28;20116;-78
2021/12/07 06:13:54;;;;;;;14.80;6.55;;;;;;;14.63;85.59;99622.19;5015077;28;20482;-80
2021/12/07 06:16:20;;;;;;;15.52;6.75;;;;;;;14.69;86.16;99618.78;5014586;28;20061;-81
2021/12/07 06:18:45;;;;;;;20.48;6.57;;;;;;;14.49;86.36;99601.28;5014281;28;20598;-86
2021/12/07 06:21:12;;;;;;;20.85;7.45;;;;;;;14.46;87.32;99618.69;4996639;28;20065;-80
2021/12/07 06:23:37;;;;;;;26.63;7.05;;;;;;;14.22;87.67;99586.28;5014379;28;20025;-82
2021/12/07 06:26:04;;;;;;;16.95;6.90;;;;;;;14.37;88.45;99608.09;5014149;28;20053;-83
2021/12/07 06:28:29;;;;;;;22.15;7.95;;;;;;;14.25;88.81;99599.47;5014725;28;20088;-82
2021/12/07 06:30:56;;;;;;;17.23;8.82;;;;;;;14.30;89.08;99628.69;5014577;28;20435;-79
2021/12/07 06:33:24;;;;;;;14.50;7.25;;;;;;;14.29;89.23;99627.84;5014308;28;20040;-80
2021/12/07 06:35:56;;;;;;;16.13;8.48;;;;;;;14.35;89.69;99619.09;5014007;28;20034;-80
2021/12/07 06:38:22;;;;;;;;;;;;;;;14.44;90.08;99603.66;5014924;28;20108;-81
2021/12/07 06:40:49;;;;;;;17.83;7.97;;;;;;;14.50;90.26;99586.72;5015088;28;20440;-80
2021/12/07 06:43:14;;;;;;;20.45;9.93;;;;;;;14.67;90.13;99593.78;5014559;28;20021;-81
2021/12/07 06:45:40;;;;;;;22.92;9.60;;;;;;;14.57;89.88;99558.81;5012924;28;20029;-80
2021/12/07 06:48:06;;;;;;;25.15;10.40;;;;;;;14.93;89.45;99605.13;5013148;28;20033;-80
2021/12/07 06:50:32;;;;;;;28.00;9.82;;;;;;;15.04;88.53;99596.63;5014173;28;20084;-81
2021/12/07 06:52:57;;;;;;;27.08;10.45;;;;;;;15.15;88.25;99596.22;5014015;28;20462;-81
2021/12/07 06:55:23;;;;;;;33.22;11.10;;;;;;;15.19;87.61;99584.00;5013768;28;20065;-79
2021/12/07 06:57:48;;;;;;;27.75;10.23;;;;;;;15.21;87.05;99581.97;5013223;28;20040;-79
2021/12/07 07:00:16;;;;;;;29.02;12.35;;;;;;;15.37;86.67;99597.25;5013881;28;20080;-79
2021/12/07 07:02:41;;;;;;;17.40;8.38;;;;;;;15.33;86.33;99597.78;5013710;28;20026;-78
2021/12/07 07:05:07;;;;;;;22.95;8.85;;;;;;;15.29;86.15;99594.59;5013817;28;20113;-78
2021/12/07 07:07:34;;;;;;;23.02;8.88;;;;;;;15.16;85.85;99592.50;5013315;28;20060;-78
2021/12/07 07:10:00;;;;;;;17.75;7.72;;;;;;;15.14;86.31;99594.50;5013833;28;20030;-78
2021/12/07 07:12:25;;;;;;;22.30;9.85;;;;;;;15.27;85.86;99600.19;5013972;28;20025;-78
2021/12/07 07:14:51;;;;;;;23.08;9.68;;;;;;;15.32;86.24;99601.53;5013760;28;20442;-78
2021/12/07 07:17:17;;;;;;;20.70;9.38;;;;;;;15.16;86.90;99597.91;5015538;28;20118;-78
2021/12/07 07:19:43;;;;;;;22.55;9.77;;;;;;;15.23;86.83;99601.56;5032808;28;20022;-78
2021/12/07 07:22:08;;;;;;;22.20;8.75;;;;;;;15.14;86.97;99575.56;5033112;28;20021;-79
2021/12/07 07:24:34;;;;;;;29.27;10.82;;;;;;;15.29;86.92;99582.94;5033513;28;20398;-77
2021/12/07 07:27:00;;;;;;;25.35;10.55;;;;;;;15.34;87.15;99580.50;5034147;28;20049;-78
2021/12/07 07:29:26;;;;;;;18.38;9.55;;;;;;;15.38;87.14;99565.59;5015666;28;20048;-77
2021/12/07 07:31:52;;;;;;;27.00;10.88;;;;;;;15.47;86.84;99575.34;5033596;28;20057;-77
2021/12/07 07:34:18;;;;;;;21.83;10.98;;;;;;;15.35;86.98;99572.19;5033705;28;20025;-77
2021/12/07 07:36:44;;;;;;;39.65;12.43;;;;;;;15.27;86.89;99553.28;5033843;28;20414;-77
2021/12/07 07:39:10;;;;;;;19.88;10.95;;;;;;;15.37;86.87;99574.72;5034005;28;20036;-77
2021/12/07 07:41:36;;;;;;;20.70;10.73;;;;;;;15.27;87.35;99578.53;5033706;28;20029;-77
2021/12/07 07:44:02;;;;;;;23.95;11.60;;;;;;;15.11;87.40;99554.25;5032679;28;20035;-76
2021/12/07 07:46:27;;;;;;;20.27;9.85;;;;;;;15.11;88.10;99565.09;5014545;28;20045;-76
2021/12/07 07:48:53;;;;;;;22.58;9.75;;;;;;;15.09;87.73;99559.03;5033655;28;20486;-77
2021/12/07 07:51:18;;;;;;;22.23;9.65;;;;;;;15.07;87.70;99552.94;5033024;28;20422;-77
2021/12/07 07:53:44;;;;;;;17.70;10.80;;;;;;;14.97;88.14;99540.66;5033519;28;20026;-78
2021/12/07 07:56:10;;;;;;;20.75;10.10;;;;;;;15.08;88.61;99564.59;5015882;28;20036;-77
2021/12/07 07:58:35;;;;;;;24.08;13.52;;;;;;;15.01;89.08;99561.78;5036685;28;20030;-79
2021/12/07 08:01:01;;;;;;;26.15;11.23;;;;;;;15.11;88.97;99561.53;5048239;28;20423;-78
2021/12/07 08:03:26;;;;;;;23.33;13.43;;;;;;;15.21;88.79;99564.84;5030393;28;20123;-77
2021/12/07 08:05:52;;;;;;;27.75;13.05;;;;;;;15.22;89.03;99570.09;5039212;28;20076;-77
2021/12/07 08:08:19;;;;;;;26.70;14.65;;;;;;;15.20;88.92;99569.44;5036781;28;20479;-76
2021/12/07 08:10:45;;;;;;;17.40;12.93;;;;;;;15.24;88.84;99575.31;5036123;28;20108;-77
2021/12/07 08:13:11;;;;;;;26.27;12.82;;;;;;;15.21;89.33;99576.53;5043626;28;20021;-80
2021/12/07 08:15:42;;;;;;;24.60;14.40;;;;;;;15.13;89.43;99571.19;5043870;28;20044;-77
2021/12/07 08:18:09;;;;;;;33.40;15.23;;;;;;;15.01;89.52;99542.00;5045493;28;20490;-77
2021/12/07 08:20:35;;;;;;;26.60;15.43;;;;;;;15.06;89.67;99551.25;5027466;28;20029;-77
2021/12/07 08:23:04;;;;;;;39.10;16.00;;;;;;;15.29;89.62;99548.53;5015809;28;20030;-76
2021/12/07 08:25:31;;;;;;;25.73;16.70;;;;;;;15.50;89.39;99554.19;5016435;28;20026;-75
2021/12/07 08:27:57;;;;;;;30.65;19.92;;;;;;;15.67;88.65;99563.00;5016277;28;20479;-77
2021/12/07 08:30:23;;;;;;;30.90;18.23;;;;;;;15.81;87.99;99562.16;4998585;28;20037;-77
2021/12/07 08:32:48;;;;;;;23.20;18.50;;;;;;;15.96;87.22;99557.59;5015503;28;20392;-75
2021/12/07 08:35:18;;;;;;;26.48;15.60;;;;;;;16.01;86.45;99551.66;5015998;28;20045;-76
2021/12/07 08:37:46;;;;;;;37.50;18.70;;;;;;;16.13;85.88;99545.56;5027616;28;20056;-79
2021/12/07 08:40:16;;;;;;;31.80;16.30;;;;;;;16.16;85.17;99545.19;5017837;28;20104;-79
2021/12/07 08:42:42;;;;;;;33.22;18.85;;;;;;;16.20;84.96;99551.09;5036148;28;20022;-78
2021/12/07 08:45:08;;;;;;;34.33;18.50;;;;;;;16.23;84.21;99539.88;5035592;28;20018;-78
2021/12/07 08:47:34;;;;;;;35.75;19.40;;;;;;;16.34;83.55;99536.69;5035760;28;20494;-80
2021/12/07 08:50:02;;;;;;;45.50;24.30;;;;;;;16.48;83.24;99545.84;5036209;28;20061;-76
2021/12/07 08:52:27;;;;;;;32.22;19.05;;;;;;;16.49;82.55;99542.09;5035469;28;20112;-76
2021/12/07 09:00:06;;;;;;;37.90;20.83;;;;;;;16.50;81.38;99530.22;5036629;28;20403;-78
2021/12/07 09:02:33;;;;;;;25.50;16.15;;;;;;;16.42;80.37;99503.19;5035687;28;20032;-76
2021/12/07 09:04:59;;;;;;;38.53;15.80;;;;;;;16.38;80.50;99520.88;5036037;28;20028;-76
2021/12/07 09:07:25;;;;;;;24.60;15.55;;;;;;;16.25;80.87;99506.09;5035592;28;20155;-75
2021/12/07 09:09:51;;;;;;;35.20;17.63;;;;;;;16.25;80.30;99514.22;5034493;28;20105;-74
2021/12/07 09:12:18;;;;;;;38.95;16.00;;;;;;;16.16;81.38;99503.66;5035416;28;20111;-77
2021/12/07 09:14:44;;;;;;;30.52;17.50;;;;;;;16.10;81.50;99497.13;5035462;28;20040;-77
2021/12/07 09:17:13;;;;;;;35.03;17.88;;;;;;;15.95;82.46;99501.72;5036081;28;20480;-78
2021/12/07 09:19:40;;;;;;;28.92;15.57;;;;;;;15.90;82.91;99500.59;5051794;28;20038;-78
2021/12/07 09:22:06;;;;;;;31.20;17.75;;;;;;;15.81;83.10;99491.69;5035716;28;20106;-78
2021/12/07 09:24:32;;;;;;;28.73;16.60;;;;;;;15.82;83.38;99481.69;5034915;28;20026;-78
2021/12/07 09:26:58;;;;;;;36.08;19.08;;;;;;;15.80;83.59;99462.91;5034935;28;20025;-77
2021/12/07 09:29:24;;;;;;;32.83;17.00;;;;;;;15.83;83.60;99440.00;5034532;28;20505;-77
2021/12/07 09:31:49;;;;;;;45.15;18.33;;;;;;;15.60;83.15;99456.31;5034810;28;20021;-77
2021/12/07 09:34:16;;;;;;;56.33;20.17;;;;;;;15.52;83.60;99459.97;5034829;28;20370;-76
2021/12/07 09:36:42;;;;;;;38.88;19.50;;;;;;;15.34;84.64;99445.91;5034450;28;20045;-76
2021/12/07 09:39:10;;;;;;;34.08;18.90;;;;;;;15.31;85.04;99442.72;5034433;28;20033;-77
2021/12/07 09:41:37;;;;;;;27.98;18.23;;;;;;;15.32;85.09;99431.69;5034743;28;20047;-76
2021/12/07 09:44:05;;;;;;;45.53;17.23;;;;;;;15.25;84.58;99428.91;5034884;28;20049;-76
2021/12/07 09:46:32;;;;;;;27.65;18.63;;;;;;;15.19;85.00;99410.66;5035102;28;20100;-78
2021/12/07 09:48:57;;;;;;;36.35;18.95;;;;;;;15.33;84.88;99418.97;5034999;28;20478;-77
2021/12/07 09:51:25;;;;;;;41.13;19.98;;;;;;;15.49;84.74;99426.97;5034239;28;20018;-75
2021/12/07 09:53:52;;;;;;;32.47;18.48;;;;;;;15.57;83.89;99413.34;5034805;28;20036;-77
2021/12/07 09:56:19;;;;;;;34.50;19.65;;;;;;;15.75;82.89;99422.78;5034447;28;20025;-76
2021/12/07 09:58:48;;;;;;;41.95;16.02;;;;;;;15.66;82.01;99423.06;5035101;28;20022;-76
2021/12/07 10:01:13;;;;;;;33.72;16.77;;;;;;;15.58;82.19;99420.44;5034240;28;20032;-76
2021/12/07 10:03:40;;;;;;;29.73;18.02;;;;;;;15.64;82.35;99414.28;5034621;28;20030;-75
2021/12/07 10:06:06;;;;;;;29.60;17.55;;;;;;;15.67;82.14;99414.75;5034928;28;20561;-78
2021/12/07 10:08:32;;;;;;;44.67;17.67;;;;;;;15.59;81.75;99400.47;5034146;28;20083;-79
2021/12/07 10:11:00;;;;;;;34.03;15.30;;;;;;;15.60;81.72;99399.41;5033388;28;20639;-76
2021/12/07 10:13:28;;;;;;;26.85;12.77;;;;;;;15.67;81.32;99392.22;5032672;28;20032;-77
2021/12/07 10:15:56;;;;;;;37.45;15.20;;;;;;;15.61;81.22;99392.97;5032604;28;20037;-76
2021/12/07 10:18:26;;;;;;;31.45;13.98;;;;;;;15.63;81.30;99401.75;5033877;28;20064;-76
2021/12/07 10:21:03;;;;;;;27.38;14.52;;;;;;;15.66;80.80;99407.66;5033037;28;20044;-77
2021/12/07 10:23:39;;;;;;;32.58;14.27;;;;;;;15.69;80.57;99396.44;5034146;28;20029;-76
2021/12/07 10:26:06;;;;;;;30.83;14.77;;;;;;;15.73;80.06;99396.91;5034629;28;20510;-76
2021/12/07 10:28:51;;;;;;;36.95;15.68;;;;;;;15.88;80.24;99395.00;5034472;28;20026;-76
2021/12/07 10:31:31;;;;;;;24.52;15.57;;;;;;;15.93;79.64;99394.47;5034519;28;20095;-78
2021/12/07 10:34:00;;;;;;;30.48;13.13;;;;;;;15.72;79.50;99396.06;5034927;28;20056;-77
2021/12/07 10:36:33;;;;;;;38.63;14.68;;;;;;;15.57;80.06;99384.38;5034606;28;20036;-77
2021/12/07 10:39:09;;;;;;;37.38;13.88;;;;;;;15.58;80.82;99394.19;5034468;28;20021;-77
2021/12/07 10:41:40;;;;;;;33.42;12.68;;;;;;;15.41;81.08;99370.97;5034246;28;20059;-76
2021/12/07 10:44:16;;;;;;;27.27;12.65;;;;;;;15.57;81.46;99386.22;5016077;28;20100;-76
2021/12/07 10:47:10;;;;;;;37.72;14.63;;;;;;;15.60;81.30;99380.44;5033435;28;20494;-76
2021/12/07 10:49:49;;;;;;;32.92;13.65;;;;;;;15.46;81.78;99386.69;5033585;28;20161;-76
2021/12/07 10:52:35;;;;;;;32.22;13.68;;;;;;;15.35;82.17;99387.16;5033996;28;20025;-76
2021/12/07 10:55:13;;;;;;;46.10;15.35;;;;;;;15.36;82.97;99383.41;5034164;28;20414;-77
2021/12/07 10:57:50;;;;;;;40.53;13.88;;;;;;;15.33;83.37;99390.03;5033920;28;20100;-77
2021/12/07 11:00:41;;;;;;;42.88;15.27;;;;;;;15.26;83.51;99387.22;5033854;28;20105;-77
2021/12/07 11:03:13;;;;;;;35.00;15.45;;;;;;;15.35;83.37;99389.84;5028699;28;20067;-77
2021/12/07 11:05:46;;;;;;;23.65;14.25;;;;;;;15.46;83.68;99387.53;5031487;28;20034;-77
2021/12/07 11:08:13;;;;;;;33.72;17.85;;;;;;;15.52;83.65;99391.38;5033430;28;20487;-77
2021/12/07 11:10:47;;;;;;;32.05;12.88;;;;;;;15.60;82.87;99377.72;5033708;28;20456;-77
2021/12/07 11:13:22;;;;;;;38.17;19.65;;;;;;;15.73;82.17;99383.34;5034280;28;20028;-76
2021/12/07 11:15:56;;;;;;;32.58;15.88;;;;;;;15.69;81.90;99382.03;5034548;28;20394;-76
2021/12/07 11:18:32;;;;;;;29.38;11.98;;;;;;;15.63;81.22;99363.81;5033568;28;20107;-77
2021/12/07 11:21:03;;;;;;;37.58;12.02;;;;;;;15.56;81.81;99384.56;5034192;28;20475;-76
2021/12/07 11:23:39;;;;;;;28.85;11.15;;;;;;;15.31;81.95;99372.28;5034768;28;20057;-76
2021/12/07 11:31:45;;;;;;;21.85;11.88;;;;;;;15.35;83.12;99373.59;5033968;28;20128;-76
2021/12/07 11:34:21;;;;;;;25.50;12.23;;;;;;;15.46;82.43;99373.97;5032792;28;20101;-75
2021/12/07 11:36:49;;;;;;;21.38;12.45;;;;;;;15.50;82.21;99369.06;5033648;28;20018;-76
2021/12/07 11:39:30;;;;;;;23.33;12.23;;;;;;;15.46;82.40;99363.13;5032555;28;20092;-77
2021/12/07 11:42:05;;;;;;;28.50;12.48;;;;;;;15.50;81.90;99375.34;5032534;28;20033;-74
2021/12/07 11:44:33;;;;;;;26.40;12.80;;;;;;;15.40;82.83;99369.31;5031747;28;20060;-76
2021/12/07 11:47:00;;;;;;;31.10;13.43;;;;;;;15.43;83.10;99363.50;5032202;28;20052;-74
2021/12/07 11:49:30;;;;;;;30.20;13.45;;;;;;;15.46;83.38;99357.72;5032084;28;20033;-76
2021/12/07 11:52:01;;;;;;;32.80;16.83;;;;;;;15.59;83.42;99360.66;5032210;28;20018;-75
2021/12/07 11:54:30;;;;;;;34.10;15.80;;;;;;;15.63;83.86;99358.38;5032221;28;20458;-76
2021/12/07 11:56:56;;;;;;;33.28;15.82;;;;;;;15.73;83.83;99364.38;5032993;28;20470;-77
2021/12/07 11:59:22;;;;;;;31.40;12.95;;;;;;;15.70;83.54;99353.91;5033296;28;20032;-75
2021/12/07 12:01:49;;;;;;;35.17;14.63;;;;;;;15.65;83.48;99359.91;5033200;28;20030;-76
2021/12/07 12:04:17;;;;;;;32.45;12.38;;;;;;;15.58;83.38;99358.13;5032843;28;20487;-76
2021/12/07 12:06:46;;;;;;;26.35;13.48;;;;;;;15.57;83.33;99361.84;5032813;28;20096;-74
2021/12/07 12:09:12;;;;;;;32.92;14.30;;;;;;;15.56;83.86;99352.91;5035618;28;20027;-74
2021/12/07 12:12:09;;;;;;;26.98;12.93;;;;;;;15.55;84.19;99355.78;5033446;28;20029;-74
2021/12/07 12:14:46;;;;;;;31.20;11.93;;;;;;;15.37;85.28;99352.56;5038945;28;20126;-75
2021/12/07 12:17:33;;;;;;;28.67;10.05;;;;;;;15.37;84.77;99344.44;5032406;28;20037;-75
2021/12/07 12:20:38;;;;;;;23.85;12.23;;;;;;;15.28;85.21;99349.13;5032318;28;20134;-75
2021/12/07 12:23:10;;;;;;;24.00;7.72;;;;;;;15.00;85.71;99342.63;5041012;28;20048;-76
2021/12/07 12:25:36;;;;;;;17.27;8.75;;;;;;;14.99;87.08;99339.09;5052411;28;20378;-75
2021/12/07 12:28:02;;;;;;;17.02;8.57;;;;;;;14.92;87.65;99337.31;5051914;28;20451;-76
2021/12/07 12:30:37;;;;;;;23.73;9.00;;;;;;;14.86;88.05;99333.44;5051770;28;20074;-75
2021/12/07 12:33:08;;;;;;;35.38;10.32;;;;;;;14.92;88.26;99338.13;5051445;28;20040;-75
2021/12/07 12:35:47;;;;;;;27.20;9.57;;;;;;;14.95;88.01;99326.94;5048975;28;20029;-75
2021/12/07 12:38:27;;;;;;;33.65;16.23;;;;;;;14.97;88.30;99329.47;5038181;28;20021;-75
2021/12/07 12:40:54;;;;;;;42.05;18.50;;;;;;;15.07;88.22;99330.91;5037797;28;20068;-77
2021/12/07 12:43:52;;;;;;;57.20;15.65;;;;;;;15.09;88.09;99322.56;5035253;28;20048;-76
2021/12/07 12:46:27;;;;;;;35.78;14.95;;;;;;;15.17;87.52;99331.44;5041232;28;20203;-76
2021/12/07 12:48:56;;;;;;;34.88;13.93;;;;;;;15.20;87.27;99324.81;5036262;28;20375;-76
2021/12/07 12:51:23;;;;;;;32.05;14.98;;;;;;;15.18;87.16;99319.59;5044614;28;20036;-75
2021/12/07 12:53:51;;;;;;;26.08;12.02;;;;;;;15.31;86.92;99324.38;5052625;28;20029;-75
2021/12/07 12:56:21;;;;;;;42.00;14.85;;;;;;;15.36;87.10;99318.38;5055247;28;20029;-74
2021/12/07 12:58:50;;;;;;;43.03;12.20;;;;;;;15.37;86.71;99322.78;5037448;28;20115;-73
2021/12/07 13:01:28;;;;;;;30.38;12.73;;;;;;;15.31;86.40;99320.81;5055605;28;20071;-76
2021/12/07 13:04:11;;;;;;;31.30;13.95;;;;;;;15.24;86.36;99305.31;5053004;28;20028;-76
2021/12/07 13:07:05;;;;;;;33.80;13.25;;;;;;;15.23;86.52;99297.34;5035135;28;20036;-76